sensor_id;sensor_type;location;lat;lon;timestamp;pressure;altitude;pressure_sealevel;temperature;humidity
49843;BME280;55559;48.898;9.184;2023-03-01T00:00:30;99230.97;;;-1.84;100.00
49843;BME280;55559;48.898;9.184;2023-03-01T00:02:58;99230.16;;;-1.86;100.00
49843;BME280;55559;48.898;9.184;2023-03-01T00:05:25;99220.75;;;-1.92;100.00
49843;BME280;55559;48.898;9.184;2023-03-01T00:07:53;99229.53;;;-1.96;100.00
49843;BME280;55559;48.898;9.184;2023-03-01T00:10:20;99227.03;;;-1.99;100.00
49843;BME280;55559;48.898;9.184;2023-03-01T00:12:48;99233.13;;;-2.00;100.00
49843;BME280;55559;48.898;9.184;2023-03-01T00:15:17;99217.34;;;-1.94;100.00
49843;BME280;55559;48.898;9.184;2023-03-01T00:17:44;99220.84;;;-1.95;100.00
49843;BME280;55559;48.898;9.184;2023-03-01T00:20:12;99227.16;;;-2.03;100.00
49843;BME280;55559;48.898;9.184;2023-03-01T00:22:39;99224.69;;;-2.10;100.00
49843;BME280;55559;48.898;9.184;2023-03-01T00:25:07;99228.78;;;-2.01;100.00
49843;BME280;55559;48.898;9.184;2023-03-01T00:27:35;99222.56;;;-1.94;100.00
49843;BME280;55559;48.898;9.184;2023-03-01T00:30:02;99224.31;;;-1.96;100.00
49843;BME280;55559;48.898;9.184;2023-03-01T00:32:32;99226.19;;;-2.01;100.00
49843;BME280;55559;48.898;9.184;2023-03-01T00:34:59;99231.63;;;-2.09;100.00
49843;BME280;55559;48.898;9.184;2023-03-01T00:37:27;99229.00;;;-2.09;100.00
49843;BME280;55559;48.898;9.184;2023-03-01T00:39:55;99229.84;;;-2.08;100.00
49843;BME280;55559;48.898;9.184;2023-03-01T00:42:22;99230.41;;;-1.95;100.00
49843;BME280;55559;48.898;9.184;2023-03-01T00:44:49;99233.06;;;-1.97;100.00
49843;BME280;55559;48.898;9.184;2023-03-01T00:47:17;99231.50;;;-2.04;100.00
49843;BME280;55559;48.898;9.184;2023-03-01T00:49:46;99231.72;;;-2.13;100.00
49843;BME280;55559;48.898;9.184;2023-03-01T00:52:13;99230.84;;;-2.12;100.00
49843;BME280;55559;48.898;9.184;2023-03-01T00:54:41;99236.19;;;-2.18;100.00
49843;BME280;55559;48.898;9.184;2023-03-01T00:57:08;99229.13;;;-2.13;100.00
49843;BME280;55559;48.898;9.184;2023-03-01T00:59:35;99232.72;;;-2.17;100.00
49843;BME280;55559;48.898;9.184;2023-03-01T01:02:03;99235.00;;;-2.05;100.00
49843;BME280;55559;48.898;9.184;2023-03-01T01:04:30;99236.47;;;-1.95;100.00
49843;BME280;55559;48.898;9.184;2023-03-01T01:06:59;99229.63;;;-1.99;100.00
49843;BME280;55559;48.898;9.184;2023-03-01T01:09:26;99227.84;;;-1.97;100.00
49843;BME280;55559;48.898;9.184;2023-03-01T01:11:54;99217.34;;;-1.94;100.00
49843;BME280;55559;48.898;9.184;2023-03-01T01:14:21;99230.97;;;-1.84;100.00
49843;BME280;55559;48.898;9.184;2023-03-01T01:16:49;99229.34;;;-1.88;100.00
49843;BME280;55559;48.898;9.184;2023-03-01T01:19:16;99224.66;;;-1.74;100.00
49843;BME280;55559;48.898;9.184;2023-03-01T01:21:44;99217.06;;;-1.83;100.00
49843;BME280;55559;48.898;9.184;2023-03-01T01:24:13;99223.41;;;-1.93;100.00
49843;BME280;55559;48.898;9.184;2023-03-01T01:26:41;99214.88;;;-2.00;100.00
49843;BME280;55559;48.898;9.184;2023-03-01T01:29:09;99210.47;;;-1.98;100.00
49843;BME280;55559;48.898;9.184;2023-03-01T01:31:38;99205.38;;;-2.02;100.00
49843;BME280;55559;48.898;9.184;2023-03-01T01:34:08;99210.88;;;-2.13;100.00
49843;BME280;55559;48.898;9.184;2023-03-01T01:36:36;99204.13;;;-2.20;100.00
49843;BME280;55559;48.898;9.184;2023-03-01T01:39:04;99200.84;;;-2.29;100.00
49843;BME280;55559;48.898;9.184;2023-03-01T01:41:33;99197.28;;;-2.26;100.00
49843;BME280;55559;48.898;9.184;2023-03-01T01:44:13;99192.22;;;-2.31;100.00
49843;BME280;55559;48.898;9.184;2023-03-01T01:46:43;99194.78;;;-2.29;100.00
49843;BME280;55559;48.898;9.184;2023-03-01T01:49:24;99196.28;;;-2.19;100.00
49843;BME280;55559;48.898;9.184;2023-03-01T01:51:57;99184.00;;;-2.15;100.00
49843;BME280;55559;48.898;9.184;2023-03-01T01:54:30;99185.00;;;-2.21;100.00
49843;BME280;55559;48.898;9.184;2023-03-01T01:57:05;99186.63;;;-2.15;100.00
49843;BME280;55559;48.898;9.184;2023-03-01T01:59:35;99186.53;;;-2.12;100.00
49843;BME280;55559;48.898;9.184;2023-03-01T02:02:04;99176.84;;;-2.07;100.00
49843;BME280;55559;48.898;9.184;2023-03-01T02:04:32;99168.91;;;-2.02;100.00
49843;BME280;55559;48.898;9.184;2023-03-01T02:07:02;99174.81;;;-1.96;100.00
49843;BME280;55559;48.898;9.184;2023-03-01T02:09:32;99155.59;;;-1.92;100.00
49843;BME280;55559;48.898;9.184;2023-03-01T02:12:03;99160.69;;;-1.87;100.00
49843;BME280;55559;48.898;9.184;2023-03-01T02:14:33;99158.84;;;-1.83;100.00
49843;BME280;55559;48.898;9.184;2023-03-01T02:17:00;99167.47;;;-1.81;100.00
49843;BME280;55559;48.898;9.184;2023-03-01T02:19:40;99155.28;;;-1.81;100.00
49843;BME280;55559;48.898;9.184;2023-03-01T02:22:17;99160.47;;;-1.79;100.00
49843;BME280;55559;48.898;9.184;2023-03-01T02:24:57;99147.22;;;-1.72;100.00
49843;BME280;55559;48.898;9.184;2023-03-01T02:27:33;99143.47;;;-1.61;100.00
49843;BME280;55559;48.898;9.184;2023-03-01T02:30:06;99138.88;;;-1.53;100.00
49843;BME280;55559;48.898;9.184;2023-03-01T02:32:34;99139.56;;;-1.46;100.00
49843;BME280;55559;48.898;9.184;2023-03-01T02:35:01;99133.41;;;-1.45;100.00
49843;BME280;55559;48.898;9.184;2023-03-01T02:37:33;99134.44;;;-1.50;100.00
49843;BME280;55559;48.898;9.184;2023-03-01T02:40:05;99129.00;;;-1.43;100.00
49843;BME280;55559;48.898;9.184;2023-03-01T02:42:36;99126.41;;;-1.43;100.00
49843;BME280;55559;48.898;9.184;2023-03-01T02:45:08;99122.00;;;-1.41;100.00
49843;BME280;55559;48.898;9.184;2023-03-01T02:47:36;99118.50;;;-1.40;100.00
49843;BME280;55559;48.898;9.184;2023-03-01T02:50:13;99109.59;;;-1.33;100.00
49843;BME280;55559;48.898;9.184;2023-03-01T02:52:47;99114.53;;;-1.24;100.00
49843;BME280;55559;48.898;9.184;2023-03-01T02:55:20;99107.31;;;-1.16;100.00
49843;BME280;55559;48.898;9.184;2023-03-01T02:57:48;99108.03;;;-1.10;100.00
49843;BME280;55559;48.898;9.184;2023-03-01T03:00:20;99119.19;;;-1.05;100.00
49843;BME280;55559;48.898;9.184;2023-03-01T03:02:52;99111.97;;;-0.97;100.00
49843;BME280;55559;48.898;9.184;2023-03-01T03:05:24;99106.75;;;-0.97;100.00
49843;BME280;55559;48.898;9.184;2023-03-01T03:07:56;99110.25;;;-0.98;100.00
49843;BME280;55559;48.898;9.184;2023-03-01T03:10:26;99103.25;;;-0.96;100.00
49843;BME280;55559;48.898;9.184;2023-03-01T03:12:55;99104.19;;;-0.99;100.00
49843;BME280;55559;48.898;9.184;2023-03-01T03:15:26;99101.47;;;-0.96;100.00
49843;BME280;55559;48.898;9.184;2023-03-01T03:17:56;99095.34;;;-0.95;100.00
49843;BME280;55559;48.898;9.184;2023-03-01T03:20:26;99092.59;;;-0.90;100.00
49843;BME280;55559;48.898;9.184;2023-03-01T03:22:55;99090.91;;;-0.91;100.00
49843;BME280;55559;48.898;9.184;2023-03-01T03:25:23;99097.00;;;-0.92;100.00
49843;BME280;55559;48.898;9.184;2023-03-01T03:27:52;99098.41;;;-0.82;100.00
49843;BME280;55559;48.898;9.184;2023-03-01T03:30:25;99098.31;;;-0.79;100.00
49843;BME280;55559;48.898;9.184;2023-03-01T03:32:55;99096.59;;;-0.80;100.00
49843;BME280;55559;48.898;9.184;2023-03-01T03:35:25;99095.75;;;-0.80;100.00
49843;BME280;55559;48.898;9.184;2023-03-01T03:37:52;99098.47;;;-0.83;100.00
49843;BME280;55559;48.898;9.184;2023-03-01T03:40:30;99094.09;;;-0.83;100.00
49843;BME280;55559;48.898;9.184;2023-03-01T03:42:58;99093.19;;;-0.82;100.00
49843;BME280;55559;48.898;9.184;2023-03-01T03:45:27;99085.50;;;-0.86;100.00
49843;BME280;55559;48.898;9.184;2023-03-01T03:47:54;99097.63;;;-0.84;100.00
49843;BME280;55559;48.898;9.184;2023-03-01T03:50:22;99087.22;;;-0.85;100.00
49843;BME280;55559;48.898;9.184;2023-03-01T03:52:49;99083.72;;;-0.84;100.00
49843;BME280;55559;48.898;9.184;2023-03-01T03:55:17;99086.09;;;-0.78;100.00
49843;BME280;55559;48.898;9.184;2023-03-01T03:57:46;99078.19;;;-0.75;100.00
49843;BME280;55559;48.898;9.184;2023-03-01T04:00:18;99068.75;;;-0.79;100.00
49843;BME280;55559;48.898;9.184;2023-03-01T04:02:48;99064.47;;;-0.82;100.00
49843;BME280;55559;48.898;9.184;2023-03-01T04:05:17;99066.94;;;-0.77;100.00
49843;BME280;55559;48.898;9.184;2023-03-01T04:07:45;99060.84;;;-0.78;100.00
49843;BME280;55559;48.898;9.184;2023-03-01T04:10:16;99059.94;;;-0.77;100.00
49843;BME280;55559;48.898;9.184;2023-03-01T04:12:44;99065.97;;;-0.75;100.00
49843;BME280;55559;48.898;9.184;2023-03-01T04:15:11;99058.22;;;-0.78;100.00
49843;BME280;55559;48.898;9.184;2023-03-01T04:17:44;99059.00;;;-0.74;100.00
49843;BME280;55559;48.898;9.184;2023-03-01T04:20:15;99060.75;;;-0.75;100.00
49843;BME280;55559;48.898;9.184;2023-03-01T04:22:44;99063.16;;;-0.68;100.00
49843;BME280;55559;48.898;9.184;2023-03-01T04:25:13;99058.88;;;-0.71;100.00
49843;BME280;55559;48.898;9.184;2023-03-01T04:27:41;99064.94;;;-0.69;100.00
49843;BME280;55559;48.898;9.184;2023-03-01T04:30:15;99061.50;;;-0.71;100.00
49843;BME280;55559;48.898;9.184;2023-03-01T04:32:42;99061.50;;;-0.71;100.00
49843;BME280;55559;48.898;9.184;2023-03-01T04:35:10;99056.22;;;-0.69;100.00
49843;BME280;55559;48.898;9.184;2023-03-01T04:37:38;99046.75;;;-0.72;100.00
49843;BME280;55559;48.898;9.184;2023-03-01T04:40:08;99053.75;;;-0.72;100.00
49843;BME280;55559;48.898;9.184;2023-03-01T04:42:41;99054.63;;;-0.73;100.00
49843;BME280;55559;48.898;9.184;2023-03-01T04:45:10;99061.44;;;-0.69;100.00
49843;BME280;55559;48.898;9.184;2023-03-01T04:47:40;99052.75;;;-0.70;100.00
49843;BME280;55559;48.898;9.184;2023-03-01T04:50:09;99066.84;;;-0.74;100.00
49843;BME280;55559;48.898;9.184;2023-03-01T04:52:38;99065.78;;;-0.68;100.00
49843;BME280;55559;48.898;9.184;2023-03-01T04:55:07;99057.78;;;-0.64;100.00
49843;BME280;55559;48.898;9.184;2023-03-01T04:57:35;99068.44;;;-0.70;100.00
49843;BME280;55559;48.898;9.184;2023-03-01T05:00:03;99065.22;;;-0.78;100.00
49843;BME280;55559;48.898;9.184;2023-03-01T05:02:47;99059.91;;;-0.75;100.00
49843;BME280;55559;48.898;9.184;2023-03-01T05:05:20;99067.78;;;-0.77;100.00
49843;BME280;55559;48.898;9.184;2023-03-01T05:07:57;99062.69;;;-0.81;100.00
49843;BME280;55559;48.898;9.184;2023-03-01T05:10:26;99066.19;;;-0.81;100.00
49843;BME280;55559;48.898;9.184;2023-03-01T05:12:55;99069.56;;;-0.77;100.00
49843;BME280;55559;48.898;9.184;2023-03-01T05:15:24;99058.41;;;-0.82;100.00
49843;BME280;55559;48.898;9.184;2023-03-01T05:17:53;99058.31;;;-0.79;100.00
49843;BME280;55559;48.898;9.184;2023-03-01T05:20:21;99064.53;;;-0.83;100.00
49843;BME280;55559;48.898;9.184;2023-03-01T05:22:50;99058.50;;;-0.85;100.00
49843;BME280;55559;48.898;9.184;2023-03-01T05:25:19;99049.03;;;-0.89;100.00
49843;BME280;55559;48.898;9.184;2023-03-01T05:27:47;99055.28;;;-0.94;100.00
49843;BME280;55559;48.898;9.184;2023-03-01T05:30:15;99056.03;;;-0.90;100.00
49843;BME280;55559;48.898;9.184;2023-03-01T05:32:45;99050.94;;;-0.95;100.00
49843;BME280;55559;48.898;9.184;2023-03-01T05:35:14;99050.91;;;-0.93;100.00
49843;BME280;55559;48.898;9.184;2023-03-01T05:37:42;99049.25;;;-0.96;100.00
49843;BME280;55559;48.898;9.184;2023-03-01T05:40:13;99060.69;;;-1.00;100.00
49843;BME280;55559;48.898;9.184;2023-03-01T05:42:45;99054.94;;;-1.09;100.00
49843;BME280;55559;48.898;9.184;2023-03-01T05:45:14;99060.97;;;-1.07;100.00
49843;BME280;55559;48.898;9.184;2023-03-01T05:47:43;99062.78;;;-1.09;100.00
49843;BME280;55559;48.898;9.184;2023-03-01T05:50:12;99057.91;;;-1.22;100.00
49843;BME280;55559;48.898;9.184;2023-03-01T05:52:45;99056.50;;;-1.32;100.00
49843;BME280;55559;48.898;9.184;2023-03-01T05:55:13;99057.38;;;-1.32;100.00
49843;BME280;55559;48.898;9.184;2023-03-01T05:57:40;99056.81;;;-1.41;100.00
49843;BME280;55559;48.898;9.184;2023-03-01T06:00:11;99051.53;;;-1.40;100.00
49843;BME280;55559;48.898;9.184;2023-03-01T06:02:38;99056.38;;;-1.27;100.00
49843;BME280;55559;48.898;9.184;2023-03-01T06:05:08;99047.81;;;-1.33;100.00
49843;BME280;55559;48.898;9.184;2023-03-01T06:07:38;99048.06;;;-1.40;100.00
49843;BME280;55559;48.898;9.184;2023-03-01T06:10:07;99047.25;;;-1.42;100.00
49843;BME280;55559;48.898;9.184;2023-03-01T06:12:36;99043.19;;;-1.51;100.00
49843;BME280;55559;48.898;9.184;2023-03-01T06:15:05;99047.31;;;-1.44;100.00
49843;BME280;55559;48.898;9.184;2023-03-01T06:17:39;99048.34;;;-1.50;100.00
49843;BME280;55559;48.898;9.184;2023-03-01T06:20:09;99046.69;;;-1.52;100.00
49843;BME280;55559;48.898;9.184;2023-03-01T06:22:38;99052.84;;;-1.55;100.00
49843;BME280;55559;48.898;9.184;2023-03-01T06:25:07;99052.78;;;-1.52;100.00
49843;BME280;55559;48.898;9.184;2023-03-01T06:27:35;99052.66;;;-1.48;100.00
49843;BME280;55559;48.898;9.184;2023-03-01T06:30:03;99046.13;;;-1.62;100.00
49843;BME280;55559;48.898;9.184;2023-03-01T06:32:31;99057.19;;;-1.55;100.00
49843;BME280;55559;48.898;9.184;2023-03-01T06:35:00;99053.66;;;-1.53;100.00
49843;BME280;55559;48.898;9.184;2023-03-01T06:37:28;99055.41;;;-1.53;100.00
49843;BME280;55559;48.898;9.184;2023-03-01T06:39:55;99048.56;;;-1.57;100.00
49843;BME280;55559;48.898;9.184;2023-03-01T06:42:22;99040.25;;;-1.69;100.00
49843;BME280;55559;48.898;9.184;2023-03-01T06:44:50;99046.38;;;-1.71;100.00
49843;BME280;55559;48.898;9.184;2023-03-01T06:47:17;99043.84;;;-1.74;100.00
49843;BME280;55559;48.898;9.184;2023-03-01T06:49:44;99041.16;;;-1.71;100.00
49843;BME280;55559;48.898;9.184;2023-03-01T06:52:13;99041.94;;;-1.67;100.00
49843;BME280;55559;48.898;9.184;2023-03-01T06:54:41;99053.41;;;-1.73;100.00
49843;BME280;55559;48.898;9.184;2023-03-01T06:57:08;99051.69;;;-1.74;100.00
49843;BME280;55559;48.898;9.184;2023-03-01T06:59:36;99053.31;;;-1.70;100.00
49843;BME280;55559;48.898;9.184;2023-03-01T07:02:03;99052.22;;;-1.63;100.00
49843;BME280;55559;48.898;9.184;2023-03-01T07:04:31;99051.38;;;-1.63;100.00
49843;BME280;55559;48.898;9.184;2023-03-01T07:06:58;99053.06;;;-1.62;100.00
49843;BME280;55559;48.898;9.184;2023-03-01T07:09:27;99046.72;;;-1.54;100.00
49843;BME280;55559;48.898;9.184;2023-03-01T07:11:56;99044.03;;;-1.51;100.00
49843;BME280;55559;48.898;9.184;2023-03-01T07:14:23;99040.44;;;-1.46;100.00
49843;BME280;55559;48.898;9.184;2023-03-01T07:16:51;99041.38;;;-1.21;100.00
49843;BME280;55559;48.898;9.184;2023-03-01T07:19:19;99043.28;;;-1.26;100.00
49843;BME280;55559;48.898;9.184;2023-03-01T07:21:47;99036.06;;;-1.18;100.00
49843;BME280;55559;48.898;9.184;2023-03-01T07:24:14;99037.59;;;-1.12;100.00
49843;BME280;55559;48.898;9.184;2023-03-01T07:26:43;99028.88;;;-1.11;100.00
49843;BME280;55559;48.898;9.184;2023-03-01T07:29:11;99020.22;;;-0.86;100.00
49843;BME280;55559;48.898;9.184;2023-03-01T07:31:38;99026.97;;;-0.79;100.00
49843;BME280;55559;48.898;9.184;2023-03-01T07:34:06;99037.16;;;-0.71;100.00
49843;BME280;55559;48.898;9.184;2023-03-01T07:36:33;99024.38;;;-0.79;100.00
49843;BME280;55559;48.898;9.184;2023-03-01T07:39:01;99022.41;;;-0.72;100.00
49843;BME280;55559;48.898;9.184;2023-03-01T07:41:29;99025.00;;;-0.72;100.00
49843;BME280;55559;48.898;9.184;2023-03-01T07:43:57;99017.81;;;-0.66;100.00
49843;BME280;55559;48.898;9.184;2023-03-01T07:46:25;99019.00;;;-0.76;100.00
49843;BME280;55559;48.898;9.184;2023-03-01T07:48:52;99020.69;;;-0.73;100.00
49843;BME280;55559;48.898;9.184;2023-03-01T07:51:20;99020.25;;;-0.61;100.00
49843;BME280;55559;48.898;9.184;2023-03-01T07:53:47;99021.97;;;-0.60;100.00
49843;BME280;55559;48.898;9.184;2023-03-01T07:56:15;99018.31;;;-0.56;100.00
49843;BME280;55559;48.898;9.184;2023-03-01T07:58:43;99017.59;;;-0.60;100.00
49843;BME280;55559;48.898;9.184;2023-03-01T08:01:14;99010.53;;;-0.58;100.00
49843;BME280;55559;48.898;9.184;2023-03-01T08:03:42;98998.25;;;-0.54;100.00
49843;BME280;55559;48.898;9.184;2023-03-01T08:06:11;99001.25;;;-0.41;100.00
49843;BME280;55559;48.898;9.184;2023-03-01T08:08:39;99003.41;;;-0.52;100.00
49843;BME280;55559;48.898;9.184;2023-03-01T08:11:09;98997.81;;;-0.42;100.00
49843;BME280;55559;48.898;9.184;2023-03-01T08:13:37;99006.44;;;-0.40;100.00
49843;BME280;55559;48.898;9.184;2023-03-01T08:16:07;99000.13;;;-0.34;100.00
49843;BME280;55559;48.898;9.184;2023-03-01T08:18:37;98998.34;;;-0.32;100.00
49843;BME280;55559;48.898;9.184;2023-03-01T08:21:05;98999.41;;;-0.14;100.00
49843;BME280;55559;48.898;9.184;2023-03-01T08:23:33;98993.06;;;-0.07;100.00
49843;BME280;55559;48.898;9.184;2023-03-01T08:26:05;98986.44;;;-0.17;100.00
49843;BME280;55559;48.898;9.184;2023-03-01T08:28:33;98997.16;;;0.01;100.00
49843;BME280;55559;48.898;9.184;2023-03-01T08:31:00;98993.34;;;0.09;100.00
49843;BME280;55559;48.898;9.184;2023-03-01T08:33:28;98983.09;;;0.03;100.00
49843;BME280;55559;48.898;9.184;2023-03-01T08:36:04;98993.34;;;0.09;100.00
49843;BME280;55559;48.898;9.184;2023-03-01T08:38:33;98994.00;;;0.14;100.00
49843;BME280;55559;48.898;9.184;2023-03-01T08:41:01;98985.06;;;0.20;100.00
49843;BME280;55559;48.898;9.184;2023-03-01T08:43:28;98987.56;;;0.23;100.00
49843;BME280;55559;48.898;9.184;2023-03-01T08:45:56;98988.19;;;0.30;100.00
49843;BME280;55559;48.898;9.184;2023-03-01T08:48:24;98988.03;;;0.34;100.00
49843;BME280;55559;48.898;9.184;2023-03-01T08:50:51;98983.50;;;0.60;100.00
49843;BME280;55559;48.898;9.184;2023-03-01T08:53:20;98984.78;;;0.72;100.00
49843;BME280;55559;48.898;9.184;2023-03-01T08:55:48;98981.94;;;0.78;100.00
49843;BME280;55559;48.898;9.184;2023-03-01T08:58:15;98969.75;;;0.98;100.00
49843;BME280;55559;48.898;9.184;2023-03-01T09:00:43;98984.28;;;1.06;100.00
49843;BME280;55559;48.898;9.184;2023-03-01T09:03:10;98969.59;;;1.02;100.00
49843;BME280;55559;48.898;9.184;2023-03-01T09:05:37;98965.72;;;1.11;100.00
49843;BME280;55559;48.898;9.184;2023-03-01T09:08:05;98968.28;;;1.13;100.00
49843;BME280;55559;48.898;9.184;2023-03-01T09:10:38;98971.03;;;1.09;100.00
49843;BME280;55559;48.898;9.184;2023-03-01T09:13:06;98958.66;;;1.34;100.00
49843;BME280;55559;48.898;9.184;2023-03-01T09:15:34;98958.31;;;1.21;100.00
49843;BME280;55559;48.898;9.184;2023-03-01T09:18:01;98956.16;;;1.51;100.00
49843;BME280;55559;48.898;9.184;2023-03-01T09:20:30;98951.97;;;1.26;100.00
49843;BME280;55559;48.898;9.184;2023-03-01T09:22:57;98963.31;;;1.06;100.00
49843;BME280;55559;48.898;9.184;2023-03-01T09:25:25;98950.81;;;1.13;100.00
49843;BME280;55559;48.898;9.184;2023-03-01T09:27:54;98944.78;;;1.32;100.00
49843;BME280;55559;48.898;9.184;2023-03-01T09:30:22;98941.69;;;1.42;100.00
49843;BME280;55559;48.898;9.184;2023-03-01T09:32:50;98937.88;;;1.49;100.00
49843;BME280;55559;48.898;9.184;2023-03-01T09:35:18;98942.78;;;1.57;100.00
49843;BME280;55559;48.898;9.184;2023-03-01T09:37:45;98937.97;;;1.67;100.00
49843;BME280;55559;48.898;9.184;2023-03-01T09:40:18;98932.00;;;1.63;100.00
49843;BME280;55559;48.898;9.184;2023-03-01T09:42:51;98935.44;;;1.84;100.00
49843;BME280;55559;48.898;9.184;2023-03-01T09:45:26;98926.28;;;2.12;99.81
49843;BME280;55559;48.898;9.184;2023-03-01T09:47:55;98931.81;;;1.87;99.58
49843;BME280;55559;48.898;9.184;2023-03-01T09:50:26;98932.31;;;1.95;99.21
49843;BME280;55559;48.898;9.184;2023-03-01T09:53:00;98919.03;;;2.17;97.56
49843;BME280;55559;48.898;9.184;2023-03-01T09:55:31;98924.78;;;2.26;96.41
49843;BME280;55559;48.898;9.184;2023-03-01T09:58:13;98917.59;;;2.48;94.08
49843;BME280;55559;48.898;9.184;2023-03-01T10:00:49;98918.34;;;2.50;93.18
49843;BME280;55559;48.898;9.184;2023-03-01T10:03:21;98912.28;;;2.67;93.17
49843;BME280;55559;48.898;9.184;2023-03-01T10:05:57;98901.94;;;2.99;90.09
49843;BME280;55559;48.898;9.184;2023-03-01T10:08:38;98896.09;;;3.27;88.17
49843;BME280;55559;48.898;9.184;2023-03-01T10:11:19;98901.59;;;3.23;86.29
49843;BME280;55559;48.898;9.184;2023-03-01T10:13:54;98889.81;;;3.63;83.14
49843;BME280;55559;48.898;9.184;2023-03-01T10:16:31;98885.84;;;3.72;81.05
49843;BME280;55559;48.898;9.184;2023-03-01T10:19:03;98888.81;;;3.98;77.68
49843;BME280;55559;48.898;9.184;2023-03-01T10:21:38;98882.09;;;3.60;79.44
49843;BME280;55559;48.898;9.184;2023-03-01T10:24:12;98872.00;;;3.84;80.09
49843;BME280;55559;48.898;9.184;2023-03-01T10:26:47;98875.75;;;3.80;79.57
49843;BME280;55559;48.898;9.184;2023-03-01T10:29:16;98876.75;;;4.09;76.82
49843;BME280;55559;48.898;9.184;2023-03-01T10:31:47;98874.81;;;4.29;76.29
49843;BME280;55559;48.898;9.184;2023-03-01T10:34:17;98873.88;;;4.14;76.08
49843;BME280;55559;48.898;9.184;2023-03-01T10:36:49;98855.41;;;4.46;73.71
49843;BME280;55559;48.898;9.184;2023-03-01T10:39:17;98854.44;;;4.63;72.56
49843;BME280;55559;48.898;9.184;2023-03-01T10:41:54;98849.38;;;4.74;70.79
49843;BME280;55559;48.898;9.184;2023-03-01T10:44:37;98849.97;;;4.49;72.16
49843;BME280;55559;48.898;9.184;2023-03-01T10:47:13;98849.50;;;4.57;72.69
49843;BME280;55559;48.898;9.184;2023-03-01T10:49:52;98848.72;;;4.71;70.49
49843;BME280;55559;48.898;9.184;2023-03-01T10:52:21;98848.41;;;5.06;70.54
49843;BME280;55559;48.898;9.184;2023-03-01T10:54:54;98846.00;;;5.31;67.38
49843;BME280;55559;48.898;9.184;2023-03-01T10:57:29;98840.41;;;5.07;68.92
49843;BME280;55559;48.898;9.184;2023-03-01T11:00:17;98844.06;;;5.19;67.93
49843;BME280;55559;48.898;9.184;2023-03-01T11:02:49;98827.03;;;5.53;66.41
49843;BME280;55559;48.898;9.184;2023-03-01T11:05:21;98829.75;;;5.37;66.48
49843;BME280;55559;48.898;9.184;2023-03-01T11:07:51;98830.88;;;5.62;65.47
49843;BME280;55559;48.898;9.184;2023-03-01T11:10:21;98813.84;;;5.95;63.02
49843;BME280;55559;48.898;9.184;2023-03-01T11:12:50;98810.47;;;6.07;61.89
49843;BME280;55559;48.898;9.184;2023-03-01T11:15:24;98810.06;;;5.57;62.77
49843;BME280;55559;48.898;9.184;2023-03-01T11:17:54;98799.31;;;5.61;64.37
49843;BME280;55559;48.898;9.184;2023-03-01T11:20:26;98802.09;;;5.86;63.39
49843;BME280;55559;48.898;9.184;2023-03-01T11:22:59;98793.16;;;5.74;63.00
49843;BME280;55559;48.898;9.184;2023-03-01T11:25:31;98798.28;;;6.05;61.70
49843;BME280;55559;48.898;9.184;2023-03-01T11:28:02;98801.81;;;5.76;62.62
49843;BME280;55559;48.898;9.184;2023-03-01T11:30:34;98785.78;;;5.80;62.46
49843;BME280;55559;48.898;9.184;2023-03-01T11:33:13;98780.59;;;6.20;62.24
49843;BME280;55559;48.898;9.184;2023-03-01T11:35:49;98785.69;;;6.36;60.28
49843;BME280;55559;48.898;9.184;2023-03-01T11:38:23;98782.97;;;5.97;60.10
49843;BME280;55559;48.898;9.184;2023-03-01T11:40:55;98771.25;;;6.01;61.26
49843;BME280;55559;48.898;9.184;2023-03-01T11:43:33;98764.41;;;6.64;59.77
49843;BME280;55559;48.898;9.184;2023-03-01T11:46:28;98762.50;;;5.86;61.50
49843;BME280;55559;48.898;9.184;2023-03-01T11:49:17;98757.47;;;6.23;60.48
49843;BME280;55559;48.898;9.184;2023-03-01T11:51:59;98754.06;;;6.74;58.42
49843;BME280;55559;48.898;9.184;2023-03-01T11:54:42;98757.84;;;6.83;58.80
49843;BME280;55559;48.898;9.184;2023-03-01T11:57:19;98756.88;;;6.32;58.89
49843;BME280;55559;48.898;9.184;2023-03-01T12:00:12;98748.34;;;6.67;58.78
49843;BME280;55559;48.898;9.184;2023-03-01T12:06:36;98721.94;;;6.80;58.09
49843;BME280;55559;48.898;9.184;2023-03-01T12:09:21;98714.09;;;6.53;58.13
49843;BME280;55559;48.898;9.184;2023-03-01T12:12:11;98723.84;;;6.78;59.60
49843;BME280;55559;48.898;9.184;2023-03-01T12:14:55;98716.59;;;7.06;58.21
49843;BME280;55559;48.898;9.184;2023-03-01T12:17:47;98709.53;;;6.94;56.83
49843;BME280;55559;48.898;9.184;2023-03-01T12:20:28;98702.56;;;7.05;56.29
49843;BME280;55559;48.898;9.184;2023-03-01T12:23:24;98700.16;;;6.77;57.22
49843;BME280;55559;48.898;9.184;2023-03-01T12:26:02;98688.19;;;6.71;57.42
49843;BME280;55559;48.898;9.184;2023-03-01T12:29:00;98691.75;;;7.08;57.31
49843;BME280;55559;48.898;9.184;2023-03-01T12:32:06;98683.84;;;6.96;57.34
49843;BME280;55559;48.898;9.184;2023-03-01T12:37:47;98665.22;;;7.58;55.39
49843;BME280;55559;48.898;9.184;2023-03-01T12:40:32;98671.25;;;7.60;54.95
49843;BME280;55559;48.898;9.184;2023-03-01T12:43:12;98667.69;;;7.24;55.39
49843;BME280;55559;48.898;9.184;2023-03-01T12:45:50;98675.94;;;7.20;55.65
49843;BME280;55559;48.898;9.184;2023-03-01T12:48:26;98670.19;;;7.39;56.25
49843;BME280;55559;48.898;9.184;2023-03-01T12:51:01;98659.22;;;7.56;55.81
49843;BME280;55559;48.898;9.184;2023-03-01T12:53:32;98647.34;;;7.38;55.32
49843;BME280;55559;48.898;9.184;2023-03-01T12:56:06;98642.28;;;7.59;54.98
49843;BME280;55559;48.898;9.184;2023-03-01T12:58:39;98648.47;;;7.47;54.07
49843;BME280;55559;48.898;9.184;2023-03-01T13:01:17;98641.03;;;7.28;55.09
49843;BME280;55559;48.898;9.184;2023-03-01T13:06:58;98631.16;;;7.05;56.23
49843;BME280;55559;48.898;9.184;2023-03-01T13:09:36;98625.13;;;7.40;55.65
49843;BME280;55559;48.898;9.184;2023-03-01T13:12:45;98630.53;;;7.39;55.65
49843;BME280;55559;48.898;9.184;2023-03-01T13:15:26;98626.44;;;7.46;56.38
49843;BME280;55559;48.898;9.184;2023-03-01T13:17:55;98636.63;;;7.39;55.41
49843;BME280;55559;48.898;9.184;2023-03-01T13:20:26;98623.19;;;7.42;54.58
49843;BME280;55559;48.898;9.184;2023-03-01T13:23:07;98626.09;;;7.75;55.18
49843;BME280;55559;48.898;9.184;2023-03-01T13:26:09;98619.75;;;7.89;55.02